Time;durP1;ratioP1;P1;durP2;ratioP2;P2;SDS_P1;SDS_P2;PMS_P1;PMS_P2;Temp;Humidity;BMP_temperature;BMP_pressure;BME280_temperature;BME280_humidity;BME280_pressure;Samples;Min_cycle;Max_cycle;Signal;HPM_P1;HPM_P2
2022/05/01 00:02:41;;;;;;;10.63;6.17;;;4.20;1.00;;;;;;8217794;28;20263;-68
2022/05/01 00:06:42;;;;;;;13.57;5.73;;;4.10;99.90;;;;;;8237882;28;20258;-67
2022/05/01 00:10:43;;;;;;;11.00;5.90;;;4.00;99.90;;;;;;8238249;28;20180;-67
2022/05/01 00:14:44;;;;;;;9.87;4.87;;;3.90;99.90;;;;;;8238477;28;20188;-67
2022/05/01 00:18:45;;;;;;;9.77;5.37;;;3.90;1.00;;;;;;8222948;28;20231;-67
2022/05/01 00:22:46;;;;;;;8.27;5.00;;;3.80;1.00;;;;;;8234194;28;20495;-67
2022/05/01 00:26:46;;;;;;;6.87;4.73;;;3.70;1.00;;;;;;8219849;28;20219;-68
2022/05/01 00:30:47;;;;;;;9.10;5.13;;;3.60;99.90;;;;;;8235009;28;20200;-67
2022/05/01 00:39:15;;;;;;;11.23;5.30;;;3.60;1.00;;;;;;8212510;28;20213;-67
2022/05/01 00:43:15;;;;;;;6.03;4.30;;;3.50;99.90;;;;;;8224781;28;20184;-67
2022/05/01 00:47:16;;;;;;;8.43;5.00;;;3.40;99.90;;;;;;8222835;28;20216;-67
2022/05/01 00:51:20;;;;;;;11.83;6.37;;;3.30;1.00;;;;;;8221519;28;20192;-67
2022/05/01 00:55:21;;;;;;;33.03;17.13;;;3.10;1.00;;;;;;8221341;28;20199;-69
2022/05/01 00:59:23;;;;;;;29.27;15.03;;;3.10;99.90;;;;;;8232261;28;20471;-68
2022/05/01 01:03:23;;;;;;;28.70;14.90;;;3.10;1.00;;;;;;8228779;28;20196;-69
2022/05/01 01:07:26;;;;;;;20.00;12.30;;;3.10;99.90;;;;;;8235410;28;20277;-68
2022/05/01 01:11:27;;;;;;;16.50;8.47;;;3.00;99.90;;;;;;8231711;28;20184;-67
2022/05/01 01:15:29;;;;;;;14.60;8.23;;;2.90;99.90;;;;;;8231335;28;20189;-67
2022/05/01 01:19:29;;;;;;;11.37;7.03;;;2.70;99.90;;;;;;8235852;28;20188;-68
2022/05/01 01:23:30;;;;;;;14.03;7.77;;;2.60;99.90;;;;;;8217516;28;20247;-68
2022/05/01 01:27:32;;;;;;;17.10;7.90;;;2.50;99.90;;;;;;8220203;28;20208;-68
2022/05/01 01:31:42;;;;;;;13.33;7.57;;;2.40;99.90;;;;;;8223313;28;20207;-68
2022/05/01 01:35:45;;;;;;;10.90;6.70;;;2.30;99.90;;;;;;8224806;28;20316;-68
2022/05/01 01:39:48;;;;;;;13.07;7.17;;;2.20;99.90;;;;;;8226406;28;20336;-68
2022/05/01 01:43:49;;;;;;;12.37;7.53;;;2.10;99.90;;;;;;8226973;28;20196;-68
2022/05/01 01:47:50;;;;;;;15.00;7.83;;;2.10;99.90;;;;;;8223743;28;20213;-68
2022/05/01 01:51:51;;;;;;;14.07;8.77;;;2.00;99.90;;;;;;8222467;28;20187;-68
2022/05/01 01:55:52;;;;;;;11.33;7.57;;;2.00;99.90;;;;;;8222485;28;20196;-67
2022/05/01 01:59:52;;;;;;;13.90;8.23;;;1.90;99.90;;;;;;8235864;28;20187;-68
2022/05/01 02:03:53;;;;;;;15.97;9.17;;;1.90;99.90;;;;;;8224149;28;20196;-68
2022/05/01 02:07:54;;;;;;;17.17;9.33;;;1.90;99.90;;;;;;8223072;28;20216;-69
2022/05/01 02:11:57;;;;;;;13.20;8.57;;;1.90;99.90;;;;;;8240330;28;20197;-68
2022/05/01 02:15:58;;;;;;;12.17;7.63;;;1.80;99.90;;;;;;8222778;28;20190;-68
2022/05/01 02:19:58;;;;;;;13.47;7.73;;;1.70;99.90;;;;;;8226109;28;20272;-68
2022/05/01 02:24:01;;;;;;;12.27;7.50;;;1.70;99.90;;;;;;8223740;28;20187;-68
2022/05/01 02:28:02;;;;;;;14.33;8.07;;;1.60;99.90;;;;;;8229004;28;20305;-68
2022/05/01 02:32:03;;;;;;;11.93;7.13;;;1.60;99.90;;;;;;8231585;28;20189;-68
2022/05/01 02:36:07;;;;;;;12.43;7.80;;;1.50;99.90;;;;;;8223722;28;20245;-68
2022/05/01 02:40:09;;;;;;;16.50;9.03;;;1.50;99.90;;;;;;8235180;28;20220;-67
2022/05/01 02:44:10;;;;;;;19.03;10.27;;;1.50;99.90;;;;;;8223149;28;20664;-68
2022/05/01 02:48:11;;;;;;;17.63;9.80;;;1.40;99.90;;;;;;8222886;28;20224;-68
2022/05/01 02:52:12;;;;;;;18.00;9.50;;;1.40;99.90;;;;;;8243567;28;20181;-68
2022/05/01 02:56:13;;;;;;;17.87;10.77;;;1.30;99.90;;;;;;8228704;28;20186;-68
2022/05/01 03:00:17;;;;;;;20.63;13.07;;;1.30;99.90;;;;;;8223009;28;20304;-68
2022/05/01 03:04:18;;;;;;;22.90;13.47;;;1.20;99.90;;;;;;8221586;28;20198;-68
2022/05/01 03:08:19;;;;;;;18.80;13.00;;;1.20;99.90;;;;;;8225117;28;20213;-68
2022/05/01 03:12:21;;;;;;;19.63;12.17;;;1.20;99.90;;;;;;8238578;28;20306;-68
2022/05/01 03:16:21;;;;;;;20.30;11.87;;;1.10;99.90;;;;;;8224333;28;20198;-67
2022/05/01 03:24:42;;;;;;;21.07;12.87;;;1.00;99.90;;;;;;8223622;28;20220;-68
2022/05/01 03:28:43;;;;;;;19.90;12.10;;;1.00;99.90;;;;;;8223101;28;20434;-68
2022/05/01 03:32:45;;;;;;;18.93;12.23;;;1.00;99.90;;;;;;8222369;28;20198;-68
2022/05/01 03:36:47;;;;;;;17.87;11.70;;;1.00;99.90;;;;;;8222028;28;20220;-68
2022/05/01 03:40:48;;;;;;;20.77;10.93;;;1.00;99.90;;;;;;8218315;28;20206;-68
2022/05/01 03:44:49;;;;;;;18.93;11.40;;;1.00;99.90;;;;;;8221754;28;20472;-68
2022/05/01 03:48:50;;;;;;;20.10;12.23;;;1.00;99.90;;;;;;8234714;28;20194;-68
2022/05/01 03:52:52;;;;;;;18.57;11.13;;;1.00;99.90;;;;;;8235690;28;20195;-68
2022/05/01 03:56:53;;;;;;;21.13;13.03;;;1.10;99.90;;;;;;8222360;28;20226;-68
2022/05/01 04:00:54;;;;;;;20.00;12.17;;;1.20;99.90;;;;;;8219153;28;20273;-68
2022/05/01 04:04:56;;;;;;;20.97;12.10;;;1.30;99.90;;;;;;8232721;28;20243;-69
2022/05/01 04:08:57;;;;;;;20.67;12.03;;;1.70;99.90;;;;;;8230071;28;20202;-68
2022/05/01 04:12:57;;;;;;;20.13;12.27;;;2.20;99.90;;;;;;8212538;28;20208;-68
2022/05/01 04:17:01;;;;;;;14.83;10.20;;;2.40;99.90;;;;;;8210034;28;20226;-68
2022/05/01 04:21:02;;;;;;;15.17;7.97;;;3.00;99.90;;;;;;8230233;28;20245;-68
2022/05/01 04:25:05;;;;;;;13.10;8.10;;;3.80;99.90;;;;;;8232519;28;20189;-68
2022/05/01 04:33:25;;;;;;;16.03;9.17;;;5.10;99.90;;;;;;8215226;28;20203;-68
2022/05/01 04:37:26;;;;;;;11.33;8.17;;;5.70;1.00;;;;;;8216563;28;20214;-68
2022/05/01 04:41:29;;;;;;;23.03;15.00;;;6.30;1.00;;;;;;8220298;28;20219;-68
2022/05/01 04:45:31;;;;;;;78.23;32.60;;;6.80;99.90;;;;;;8217411;28;20265;-68
2022/05/01 04:49:32;;;;;;;15.20;9.27;;;6.80;15.20;;;;;;8222799;28;20242;-68
2022/05/01 04:53:33;;;;;;;12.10;7.50;;;6.80;1.00;;;;;;8233731;28;20303;-68
2022/05/01 04:57:34;;;;;;;13.53;7.80;;;6.60;1.00;;;;;;8236459;28;20283;-68
2022/05/01 05:01:35;;;;;;;10.97;7.30;;;6.20;1.00;;;;;;8212147;28;20299;-68
2022/05/01 05:05:36;;;;;;;18.07;10.77;;;6.00;99.90;;;;;;8230269;28;20200;-68
2022/05/01 05:09:55;;;;;;;22.60;12.77;;;5.90;99.90;;;;;;8227950;28;20200;-70
2022/05/01 05:13:57;;;;;;;15.10;9.47;;;5.70;1.00;;;;;;8224017;28;20188;-67
2022/05/01 05:17:58;;;;;;;18.20;11.47;;;5.80;99.90;;;;;;8222041;28;20215;-67
2022/05/01 05:21:59;;;;;;;13.87;9.40;;;5.90;99.90;;;;;;8218323;28;20210;-67
2022/05/01 05:26:00;;;;;;;15.63;9.73;;;6.00;99.90;;;;;;8225201;28;20318;-68
2022/05/01 05:30:01;;;;;;;12.73;8.33;;;6.20;99.90;;;;;;8237834;28;20291;-68
2022/05/01 05:34:01;;;;;;;12.33;7.33;;;6.50;1.00;;;;;;8223700;28;20201;-68
2022/05/01 05:38:02;;;;;;;12.63;7.30;;;6.70;1.00;;;;;;8234692;28;20220;-68
2022/05/01 05:42:03;;;;;;;10.80;7.17;;;6.90;12.90;;;;;;8222096;28;20293;-68
2022/05/01 05:46:04;;;;;;;15.70;8.10;;;7.20;1.00;;;;;;8225912;28;20197;-68
2022/05/01 05:50:06;;;;;;;13.93;8.47;;;7.40;99.90;;;;;;8220515;28;20219;-68
2022/05/01 05:54:06;;;;;;;13.43;8.67;;;7.60;99.90;;;;;;8230519;28;20240;-68
2022/05/01 05:58:07;;;;;;;14.00;9.70;;;7.80;70.40;;;;;;8223919;28;20220;-68
2022/05/01 06:02:09;;;;;;;15.57;9.87;;;8.10;1.00;;;;;;8219684;28;20249;-67
2022/05/01 06:06:10;;;;;;;13.10;8.77;;;8.30;99.90;;;;;;8239085;28;20191;-68
2022/05/01 06:10:10;;;;;;;17.73;10.83;;;8.60;99.90;;;;;;8238265;28;20201;-67
2022/05/01 06:14:11;;;;;;;15.63;10.57;;;8.90;99.90;;;;;;8227666;28;20193;-68
2022/05/01 06:18:12;;;;;;;18.57;12.63;;;9.30;99.90;;;;;;8222051;28;20238;-67
2022/05/01 06:22:13;;;;;;;16.17;11.07;;;9.70;99.90;;;;;;8234371;28;20191;-68
2022/05/01 06:26:14;;;;;;;18.17;11.80;;;10.10;1.00;;;;;;8241991;28;20204;-67
2022/05/01 06:30:15;;;;;;;20.67;13.10;;;10.40;1.00;;;;;;8216987;28;20205;-65
2022/05/01 06:34:16;;;;;;;20.90;13.53;;;10.70;1.00;;;;;;8223090;28;20272;-68
2022/05/01 06:38:17;;;;;;;20.23;13.50;;;10.90;1.00;;;;;;8226059;28;20315;-70
2022/05/01 06:42:18;;;;;;;22.90;13.73;;;11.20;99.90;;;;;;8224373;28;20216;-68
2022/05/01 06:46:18;;;;;;;22.23;14.13;;;11.40;99.90;;;;;;8224751;28;20195;-69
2022/05/01 06:50:20;;;;;;;22.00;14.00;;;11.60;99.90;;;;;;8221022;28;20202;-68
2022/05/01 06:54:22;;;;;;;24.03;16.10;;;11.70;99.90;;;;;;8237507;28;20192;-69
2022/05/01 06:58:22;;;;;;;23.93;15.67;;;11.70;99.90;;;;;;8212673;28;20218;-69
2022/05/01 07:02:23;;;;;;;22.57;15.67;;;11.90;99.90;;;;;;8234447;28;20236;-67
2022/05/01 07:06:24;;;;;;;29.20;17.03;;;12.00;99.90;;;;;;8221363;28;20190;-67
2022/05/01 07:10:25;;;;;;;27.20;17.27;;;12.20;99.90;;;;;;8224815;28;20243;-67
2022/05/01 07:14:26;;;;;;;26.67;15.77;;;12.50;99.90;;;;;;8221037;28;20190;-67
2022/05/01 07:18:27;;;;;;;23.37;15.43;;;12.70;99.90;;;;;;8218872;28;20212;-67
2022/05/01 07:22:28;;;;;;;21.23;13.83;;;13.00;99.90;;;;;;8220923;28;20272;-67
2022/05/01 07:26:33;;;;;;;22.03;14.40;;;13.20;99.90;;;;;;8223341;28;21410;-67
2022/05/01 07:30:34;;;;;;;21.40;15.27;;;13.40;99.90;;;;;;8218218;28;20286;-67
2022/05/01 07:34:35;;;;;;;23.07;14.07;;;13.50;99.90;;;;;;8235889;28;20239;-67
2022/05/01 07:38:35;;;;;;;19.70;14.03;;;13.70;99.90;;;;;;8237005;28;20414;-67
2022/05/01 07:42:36;;;;;;;23.87;14.40;;;13.90;99.90;;;;;;8241574;28;20210;-67
2022/05/01 07:46:38;;;;;;;17.67;12.40;;;14.00;88.40;;;;;;8212526;28;20184;-67
2022/05/01 07:50:39;;;;;;;19.03;12.70;;;14.10;93.90;;;;;;8225963;28;20209;-67
2022/05/01 07:54:40;;;;;;;21.87;13.23;;;14.30;98.40;;;;;;8214669;28;20188;-67
2022/05/01 07:58:41;;;;;;;20.33;12.50;;;14.30;70.30;;;;;;8224148;28;20208;-67
2022/05/01 08:07:03;;;;;;;18.30;11.40;;;14.40;99.90;;;;;;8220744;28;20200;-67
2022/05/01 08:11:05;;;;;;;17.97;11.17;;;14.80;81.40;;;;;;8213030;28;20193;-67
2022/05/01 08:15:08;;;;;;;17.17;11.47;;;15.20;47.10;;;;;;8221006;28;20280;-67
2022/05/01 08:23:28;;;;;;;16.37;11.60;;;15.80;11.70;;;;;;8223299;28;20208;-68
2022/05/01 08:27:29;;;;;;;15.03;10.30;;;16.10;1.00;;;;;;8217607;28;20496;-67
2022/05/01 08:31:30;;;;;;;16.60;11.13;;;16.20;1.00;;;;;;8218218;28;20207;-67
2022/05/01 08:35:31;;;;;;;14.73;10.90;;;16.40;1.00;;;;;;8217479;28;20628;-67
2022/05/01 08:39:32;;;;;;;20.67;13.23;;;16.50;1.00;;;;;;8233323;28;20683;-67
2022/05/01 08:43:33;;;;;;;14.23;10.13;;;16.60;1.00;;;;;;8218894;28;20248;-67
2022/05/01 08:47:34;;;;;;;16.63;10.03;;;16.80;1.00;;;;;;8223100;28;20180;-69
2022/05/01 08:51:40;;;;;;;16.07;10.00;;;16.90;1.00;;;;;;8232455;28;20272;-67
2022/05/01 08:55:43;;;;;;;14.20;9.77;;;17.10;1.00;;;;;;8220133;28;20200;-67
2022/05/01 08:59:46;;;;;;;15.43;10.33;;;17.30;1.00;;;;;;8218757;28;20240;-68
2022/05/01 09:03:46;;;;;;;16.27;10.30;;;17.40;1.00;;;;;;8236905;28;20188;-69
2022/05/01 09:07:47;;;;;;;14.33;10.13;;;17.60;1.00;;;;;;8235220;28;20211;-68
2022/05/01 09:16:11;;;;;;;11.30;8.87;;;17.90;1.00;;;;;;8217304;28;20275;-66
2022/05/01 09:20:12;;;;;;;14.10;9.10;;;18.10;1.00;;;;;;8216763;28;20199;-66
2022/05/01 09:24:13;;;;;;;15.43;8.97;;;18.20;1.00;;;;;;8215398;28;20201;-68
2022/05/01 09:28:22;;;;;;;11.20;8.17;;;18.20;1.00;;;;;;8211546;28;20220;-66
2022/05/01 09:32:36;;;;;;;13.30;8.50;;;18.30;1.00;;;;;;8218859;28;20188;-67
2022/05/01 09:36:37;;;;;;;14.23;8.37;;;18.40;1.00;;;;;;8217681;28;20239;-68
2022/05/01 09:40:38;;;;;;;12.43;8.00;;;18.50;1.00;;;;;;8230723;28;20218;-68
2022/05/01 09:44:39;;;;;;;15.43;10.00;;;18.70;1.00;;;;;;8217419;28;20196;-67
2022/05/01 09:48:41;;;;;;;14.07;9.40;;;18.80;1.00;;;;;;8231606;28;20223;-67
2022/05/01 09:53:01;;;;;;;16.57;9.53;;;18.80;1.00;;;;;;8229837;28;20189;-69
2022/05/01 09:57:02;;;;;;;18.07;9.60;;;18.80;1.00;;;;;;8220201;28;20270;-67
2022/05/01 10:01:11;;;;;;;14.83;8.47;;;19.00;1.00;;;;;;8225569;28;20192;-67
2022/05/01 10:05:12;;;;;;;14.33;9.70;;;19.00;1.00;;;;;;8222218;28;20185;-67
2022/05/01 10:09:14;;;;;;;13.47;8.97;;;19.00;1.00;;;;;;8223986;28;20219;-67
2022/05/01 10:13:15;;;;;;;13.37;8.67;;;19.10;1.00;;;;;;8226522;28;20238;-67
2022/05/01 10:17:16;;;;;;;13.43;8.90;;;19.20;1.00;;;;;;8223392;28;20188;-69
2022/05/01 10:21:17;;;;;;;14.20;9.43;;;19.30;1.00;;;;;;8234482;28;20201;-67
2022/05/01 10:25:18;;;;;;;14.73;9.63;;;19.30;1.00;;;;;;8234041;28;20437;-66
2022/05/01 10:29:36;;;;;;;13.23;8.93;;;19.30;1.00;;;;;;8242888;28;20608;-66
2022/05/01 10:34:13;;;;;;;14.07;9.27;;;19.40;1.00;;;;;;8233352;28;20188;-65
2022/05/01 10:38:38;;;;;;;14.03;8.87;;;19.60;1.00;;;;;;8224656;28;20242;-66
2022/05/01 10:42:47;;;;;;;16.57;9.70;;;19.70;1.00;;;;;;8222942;28;20219;-67
2022/05/01 10:46:54;;;;;;;18.30;11.27;;;19.90;1.00;;;;;;8223538;28;20209;-67
2022/05/01 10:50:55;;;;;;;14.40;9.67;;;20.00;1.00;;;;;;8234972;28;20188;-67
2022/05/01 10:55:07;;;;;;;12.73;9.07;;;20.00;1.00;;;;;;8224892;28;20218;-66
2022/05/01 10:59:29;;;;;;;12.17;8.43;;;20.10;1.00;;;;;;8222956;28;20196;-66
2022/05/01 11:03:32;;;;;;;12.00;8.67;;;20.10;1.00;;;;;;8221589;28;20193;-66
2022/05/01 11:07:39;;;;;;;10.83;7.87;;;20.10;1.00;;;;;;8237672;28;20339;-66
2022/05/01 11:11:40;;;;;;;11.60;7.83;;;20.20;1.00;;;;;;8222449;28;20197;-67
2022/05/01 11:15:47;;;;;;;13.57;8.07;;;20.40;1.00;;;;;;8238355;28;20199;-66
2022/05/01 11:19:51;;;;;;;11.63;8.00;;;20.50;1.00;;;;;;8221192;28;20191;-69
2022/05/01 11:23:59;;;;;;;13.07;8.17;;;20.40;1.00;;;;;;8218071;28;20192;-67
2022/05/01 11:28:00;;;;;;;11.90;7.50;;;20.30;1.00;;;;;;8230832;28;20212;-67
2022/05/01 11:32:17;;;;;;;12.30;8.73;;;20.50;1.00;;;;;;8235671;28;20195;-67
2022/05/01 11:36:18;;;;;;;13.03;8.07;;;20.60;1.00;;;;;;8215949;28;20195;-66
2022/05/01 11:40:28;;;;;;;11.50;8.23;;;20.70;1.00;;;;;;8211925;28;20299;-67
2022/05/01 11:44:30;;;;;;;13.50;8.30;;;20.90;1.00;;;;;;8219395;28;20200;-66
2022/05/01 11:48:31;;;;;;;11.97;7.13;;;20.90;1.00;;;;;;8218186;28;20303;-69
2022/05/01 11:52:39;;;;;;;10.77;7.33;;;21.10;1.00;;;;;;8218142;28;20188;-66
2022/05/01 12:05:29;;;;;;;14.13;8.30;;;21.30;1.00;;;;;;8215884;28;20203;-69
2022/05/01 12:09:31;;;;;;;10.30;6.53;;;21.30;1.00;;;;;;8219246;28;20251;-65
2022/05/01 12:13:32;;;;;;;11.77;7.17;;;21.40;1.00;;;;;;8219923;28;20185;-66
2022/05/01 12:17:39;;;;;;;13.03;8.10;;;21.50;1.00;;;;;;8226175;28;20196;-66
2022/05/01 12:21:40;;;;;;;12.70;8.10;;;21.50;1.00;;;;;;8219564;28;20184;-67
2022/05/01 12:25:41;;;;;;;11.13;7.20;;;21.70;1.00;;;;;;8216091;28;20298;-66
2022/05/01 12:29:53;;;;;;;11.80;7.40;;;21.60;1.00;;;;;;8223207;28;20192;-66
2022/05/01 12:33:54;;;;;;;11.17;8.03;;;21.70;1.00;;;;;;8234134;28;20235;-65
2022/05/01 12:37:58;;;;;;;8.23;6.20;;;21.60;1.00;;;;;;8215450;28;20199;-66
2022/05/01 12:46:53;;;;;;;10.30;5.53;;;21.80;1.00;;;;;;8220063;28;20219;-67
2022/05/01 12:50:54;;;;;;;8.90;5.00;;;21.80;1.00;;;;;;8219008;28;20188;-66
2022/05/01 12:55:17;;;;;;;7.80;4.57;;;21.90;1.00;;;;;;8212790;28;20216;-66
2022/05/01 12:59:28;;;;;;;9.10;4.90;;;22.10;1.00;;;;;;8219435;28;20184;-65
2022/05/01 13:03:36;;;;;;;6.53;3.77;;;22.10;1.00;;;;;;8233518;28;20217;-65
2022/05/01 13:07:37;;;;;;;5.03;4.17;;;22.20;1.00;;;;;;8218467;28;20484;-67
2022/05/01 13:11:37;;;;;;;5.70;3.70;;;22.30;1.00;;;;;;8226892;28;20259;-66
2022/05/01 13:15:38;;;;;;;6.40;3.90;;;22.30;1.00;;;;;;8213055;28;20192;-67
2022/05/01 13:19:41;;;;;;;6.40;4.17;;;22.30;1.00;;;;;;8211078;28;20267;-64
2022/05/01 13:23:42;;;;;;;7.60;5.00;;;22.50;1.00;;;;;;8227361;28;20192;-65
2022/05/01 13:27:43;;;;;;;5.67;4.23;;;22.40;1.00;;;;;;8230328;28;20204;-67
2022/05/01 13:31:47;;;;;;;6.30;4.77;;;22.40;1.00;;;;;;8225580;28;20241;-66
2022/05/01 13:35:47;;;;;;;8.67;4.80;;;22.40;1.00;;;;;;8212800;28;20199;-65
2022/05/01 13:48:27;;;;;;;8.57;4.93;;;22.70;1.00;;;;;;8220304;28;20279;-66
2022/05/01 13:52:28;;;;;;;6.80;5.13;;;22.70;1.00;;;;;;8211888;28;20192;-65
2022/05/01 13:56:28;;;;;;;7.47;4.63;;;22.90;1.00;;;;;;8217132;28;20189;-65
2022/05/01 14:00:29;;;;;;;8.53;5.43;;;23.00;1.00;;;;;;8228316;28;20200;-66
2022/05/01 14:04:30;;;;;;;9.33;5.60;;;23.00;1.00;;;;;;8219537;28;20275;-66
2022/05/01 14:08:31;;;;;;;6.20;4.97;;;23.00;1.00;;;;;;8229829;28;20215;-66
2022/05/01 14:12:32;;;;;;;7.10;5.30;;;22.90;1.00;;;;;;8229897;28;20212;-65
2022/05/01 14:16:32;;;;;;;9.37;5.67;;;22.90;1.00;;;;;;8215985;28;20199;-65
2022/05/01 14:20:33;;;;;;;8.13;5.40;;;23.00;1.00;;;;;;8214402;28;20205;-65
2022/05/01 14:24:35;;;;;;;6.60;4.73;;;23.10;1.00;;;;;;8217453;28;20197;-64
2022/05/01 14:28:38;;;;;;;7.27;5.27;;;23.00;1.00;;;;;;8221318;28;20239;-66
2022/05/01 14:32:48;;;;;;;7.93;5.27;;;22.90;1.00;;;;;;8219780;28;20257;-66
2022/05/01 14:36:55;;;;;;;7.10;4.60;;;22.50;1.00;;;;;;8224579;28;20193;-66
2022/05/01 14:41:02;;;;;;;5.57;4.07;;;22.00;1.00;;;;;;8233811;28;20290;-66
2022/05/01 14:45:06;;;;;;;7.33;4.53;;;21.50;1.00;;;;;;8211931;28;20276;-65
2022/05/01 14:49:13;;;;;;;8.53;5.57;;;21.30;1.00;;;;;;8214158;28;21260;-65
2022/05/01 14:53:14;;;;;;;6.87;5.00;;;21.40;1.00;;;;;;8229507;28;20276;-65
2022/05/01 14:57:19;;;;;;;8.53;6.17;;;21.40;1.00;;;;;;8221916;28;20255;-64
2022/05/01 15:10:04;;;;;;;5.07;4.10;;;21.20;1.00;;;;;;8218984;28;20207;-65
2022/05/01 15:14:05;;;;;;;7.10;4.00;;;20.80;1.00;;;;;;8215105;28;20189;-65
2022/05/01 15:18:09;;;;;;;6.50;4.10;;;20.50;1.00;;;;;;8236131;28;20247;-65
2022/05/01 15:22:22;;;;;;;5.00;3.57;;;20.10;1.00;;;;;;8217097;28;20188;-66
2022/05/01 15:26:26;;;;;;;4.90;3.13;;;20.20;1.00;;;;;;8230404;28;20286;-66
2022/05/01 15:30:35;;;;;;;4.53;3.40;;;19.90;1.00;;;;;;8230554;28;20204;-66
2022/05/01 15:34:40;;;;;;;7.53;4.07;;;19.50;1.00;;;;;;8213272;28;20228;-66
2022/05/01 15:38:53;;;;;;;5.50;4.23;;;19.30;1.00;;;;;;8206700;28;20219;-66
2022/05/01 15:42:54;;;;;;;8.63;4.17;;;19.40;1.00;;;;;;8203275;28;20215;-66
2022/05/01 15:46:55;;;;;;;4.77;3.83;;;19.50;1.00;;;;;;8206739;28;20239;-66
2022/05/01 15:55:28;;;;;;;6.50;4.30;;;19.50;1.00;;;;;;8209882;28;20227;-66
2022/05/01 15:59:30;;;;;;;5.70;4.20;;;19.80;1.00;;;;;;8222918;28;20227;-66
2022/05/01 16:03:32;;;;;;;4.27;3.37;;;20.10;1.00;;;;;;8201321;28;20215;-66
2022/05/01 16:07:40;;;;;;;3.97;3.30;;;20.10;1.00;;;;;;8227030;28;20304;-66
2022/05/01 16:12:01;;;;;;;4.23;3.33;;;20.00;1.00;;;;;;8208548;28;20181;-66
2022/05/01 16:16:05;;;;;;;4.53;3.30;;;19.70;1.00;;;;;;8210200;28;20278;-66
2022/05/01 16:20:13;;;;;;;10.70;6.80;;;19.70;1.00;;;;;;8212123;28;20190;-66
2022/05/01 16:24:34;;;;;;;9.13;5.83;;;19.70;1.00;;;;;;8217463;28;20258;-66
2022/05/01 16:28:42;;;;;;;7.03;4.83;;;19.80;1.00;;;;;;8208202;28;20213;-66
2022/05/01 16:33:06;;;;;;;8.97;6.17;;;19.70;1.00;;;;;;8229387;28;20191;-66
2022/05/01 16:37:14;;;;;;;7.17;4.30;;;19.70;1.00;;;;;;8211733;28;20188;-65
2022/05/01 16:41:16;;;;;;;11.83;6.03;;;19.80;1.00;;;;;;8207286;28;20219;-66
2022/05/01 16:45:18;;;;;;;7.20;3.97;;;19.70;1.00;;;;;;8208131;28;20212;-67
2022/05/01 16:49:21;;;;;;;6.77;3.87;;;19.60;1.00;;;;;;8212784;28;20212;-66
2022/05/01 16:53:25;;;;;;;7.20;4.07;;;19.60;1.00;;;;;;8212965;28;20224;-66
2022/05/01 16:57:30;;;;;;;7.80;4.77;;;19.50;1.00;;;;;;8215198;28;20688;-66
2022/05/01 17:01:33;;;;;;;9.20;6.03;;;19.40;1.00;;;;;;8207501;28;20207;-66
2022/05/01 17:05:58;;;;;;;10.60;7.83;;;19.30;1.00;;;;;;8212502;28;20196;-66
2022/05/01 17:10:04;;;;;;;6.33;5.00;;;19.00;1.00;;;;;;8215605;28;20322;-68
2022/05/01 17:14:27;;;;;;;7.23;4.93;;;18.80;1.00;;;;;;8227142;28;20284;-66
2022/05/01 17:18:53;;;;;;;9.30;6.33;;;18.50;1.00;;;;;;8223162;28;20193;-67
2022/05/01 17:23:00;;;;;;;12.27;8.33;;;18.30;1.00;;;;;;8213648;28;20697;-68
2022/05/01 17:27:06;;;;;;;9.90;6.30;;;18.10;1.00;;;;;;8230691;28;20216;-66
2022/05/01 17:31:17;;;;;;;89.93;53.97;;;18.00;1.00;;;;;;8225571;28;20207;-67
2022/05/01 17:35:21;;;;;;;17.13;12.13;;;17.90;1.00;;;;;;8229560;28;20250;-67
2022/05/01 17:39:23;;;;;;;30.77;23.83;;;17.90;1.00;;;;;;8207098;28;20208;-67
2022/05/01 17:43:28;;;;;;;37.40;22.43;;;17.80;1.00;;;;;;8211595;28;20193;-67
2022/05/01 17:47:30;;;;;;;42.17;27.53;;;17.60;1.00;;;;;;8223064;28;20465;-68
2022/05/01 17:51:32;;;;;;;29.87;21.30;;;17.50;1.00;;;;;;8212911;28;20275;-67
2022/05/01 17:55:34;;;;;;;24.83;18.00;;;17.50;1.00;;;;;;8213772;28;20340;-68
2022/05/01 17:59:35;;;;;;;20.20;15.00;;;17.60;1.00;;;;;;8229532;28;20195;-68
2022/05/01 18:03:45;;;;;;;18.23;11.67;;;17.50;1.00;;;;;;8216844;28;20185;-68
2022/05/01 18:12:35;;;;;;;9.70;6.07;;;16.60;1.00;;;;;;8208830;28;20284;-67
2022/05/01 18:16:44;;;;;;;7.97;5.40;;;16.00;1.00;;;;;;8213452;28;20222;-70
2022/05/01 18:20:53;;;;;;;8.53;6.80;;;15.60;1.00;;;;;;8235781;28;20276;-69
2022/05/01 18:25:10;;;;;;;7.10;5.87;;;15.20;1.00;;;;;;8225733;28;21668;-69
2022/05/01 18:34:06;;;;;;;5.73;4.23;;;14.60;66.60;;;;;;8219022;28;20227;-69
2022/05/01 18:38:16;;;;;;;5.50;4.40;;;14.30;99.90;;;;;;8222159;28;20629;-69
2022/05/01 18:42:20;;;;;;;7.60;4.70;;;14.10;99.90;;;;;;8231860;28;20189;-69
2022/05/01 18:46:24;;;;;;;5.27;4.23;;;13.80;99.90;;;;;;8215479;28;20212;-69
2022/05/01 18:50:25;;;;;;;5.43;3.87;;;13.60;99.90;;;;;;8219766;28;20192;-70
2022/05/01 18:54:29;;;;;;;3.20;2.87;;;13.40;99.90;;;;;;8239685;28;20484;-69
2022/05/01 18:58:32;;;;;;;4.20;3.73;;;13.10;99.90;;;;;;8219399;28;20318;-70
2022/05/01 19:02:33;;;;;;;4.30;3.77;;;12.90;99.90;;;;;;8221168;28;20188;-68
2022/05/01 19:06:43;;;;;;;6.97;3.63;;;12.80;99.90;;;;;;8232427;28;20213;-70
2022/05/01 19:10:51;;;;;;;5.93;3.97;;;12.60;99.90;;;;;;8236688;28;20203;-69
2022/05/01 19:15:17;;;;;;;4.67;4.20;;;12.60;99.90;;;;;;8225694;28;20179;-69
2022/05/01 19:19:50;;;;;;;5.97;3.93;;;12.60;99.90;;;;;;8218253;28;20195;-69
2022/05/01 19:28:53;;;;;;;8.67;6.43;;;12.60;99.90;;;;;;8219472;28;20280;-69
2022/05/01 19:33:29;;;;;;;11.63;7.70;;;12.50;99.90;;;;;;8237713;28;20187;-69
2022/05/01 19:37:41;;;;;;;7.93;6.00;;;12.40;99.90;;;;;;8211183;28;20200;-68
2022/05/01 19:42:00;;;;;;;6.60;5.13;;;12.30;99.90;;;;;;8231926;28;20239;-69
2022/05/01 19:46:22;;;;;;;20.47;12.40;;;12.40;99.90;;;;;;8213606;28;20217;-69
2022/05/01 19:54:49;;;;;;;13.20;7.27;;;11.90;99.90;;;;;;8220045;28;20268;-69
2022/05/01 19:58:57;;;;;;;12.00;7.30;;;12.30;99.90;;;;;;8215527;28;20192;-69
2022/05/01 20:03:00;;;;;;;12.07;6.97;;;12.60;99.90;;;;;;8213639;28;20194;-69
2022/05/01 20:07:01;;;;;;;17.97;9.63;;;12.90;99.90;;;;;;8227601;28;20248;-68
2022/05/01 20:11:03;;;;;;;9.97;5.20;;;13.20;99.90;;;;;;8229012;28;20201;-67
2022/05/01 20:15:08;;;;;;;9.77;6.10;;;13.50;81.80;;;;;;8221000;28;20189;-67
2022/05/01 20:19:14;;;;;;;9.57;5.40;;;13.70;59.50;;;;;;8227295;28;20212;-66
2022/05/01 20:23:54;;;;;;;9.20;5.47;;;13.80;58.50;;;;;;8220557;28;20207;-67
2022/05/01 20:27:58;;;;;;;8.67;4.87;;;13.90;56.10;;;;;;8214999;28;20235;-67
2022/05/01 20:32:20;;;;;;;6.40;4.57;;;13.80;51.60;;;;;;8217705;28;20275;-68
2022/05/01 20:36:56;;;;;;;8.77;5.60;;;13.70;60.20;;;;;;8220077;28;20223;-69
2022/05/01 20:41:00;;;;;;;9.30;4.37;;;13.50;82.80;;;;;;8212104;28;20236;-66
2022/05/01 20:45:08;;;;;;;8.20;5.00;;;13.30;97.60;;;;;;8213329;28;20192;-68
2022/05/01 20:49:18;;;;;;;8.40;4.50;;;13.10;99.90;;;;;;8223053;28;20227;-67
2022/05/01 20:53:34;;;;;;;7.17;4.90;;;12.90;99.90;;;;;;8214681;28;20193;-69
2022/05/01 20:57:37;;;;;;;7.80;5.30;;;12.80;99.90;;;;;;8212386;28;20199;-68
2022/05/01 21:01:38;;;;;;;10.07;4.57;;;12.60;99.90;;;;;;8210660;28;20198;-69
2022/05/01 21:05:39;;;;;;;9.47;5.10;;;12.50;99.90;;;;;;8231040;28;20195;-67
2022/05/01 21:09:41;;;;;;;10.23;5.57;;;12.30;99.90;;;;;;8231696;28;20187;-69
2022/05/01 21:13:44;;;;;;;11.93;7.27;;;12.20;99.90;;;;;;8213177;28;20195;-69
2022/05/01 21:17:46;;;;;;;11.40;6.10;;;12.00;99.90;;;;;;8230396;28;20198;-69
2022/05/01 21:21:47;;;;;;;8.37;5.07;;;11.90;99.90;;;;;;8233485;28;20190;-68
2022/05/01 21:25:47;;;;;;;9.63;5.37;;;11.70;99.90;;;;;;8211122;28;20444;-72
2022/05/01 21:34:08;;;;;;;8.17;6.00;;;11.40;99.90;;;;;;8214717;28;20224;-68
2022/05/01 21:38:09;;;;;;;7.77;4.90;;;11.20;99.90;;;;;;8232627;28;20277;-69
2022/05/01 21:42:14;;;;;;;5.03;3.90;;;11.00;99.90;;;;;;8233025;28;20963;-68
2022/05/01 21:46:15;;;;;;;7.57;5.17;;;10.90;99.90;;;;;;8212704;28;20224;-68
2022/05/01 21:50:16;;;;;;;13.17;6.83;;;10.80;99.90;;;;;;8209671;28;20185;-69
2022/05/01 21:54:17;;;;;;;13.27;7.60;;;10.70;99.90;;;;;;8223145;28;20187;-69
2022/05/01 21:58:18;;;;;;;11.70;7.70;;;10.60;99.90;;;;;;8220851;28;20188;-68
2022/05/01 22:02:19;;;;;;;10.03;5.87;;;10.50;99.90;;;;;;8236077;28;20199;-68
2022/05/01 22:06:21;;;;;;;9.63;6.57;;;10.40;99.90;;;;;;8218491;28;20250;-68
2022/05/01 22:10:21;;;;;;;8.93;5.77;;;10.30;99.90;;;;;;8215469;28;20192;-68
2022/05/01 22:14:22;;;;;;;7.53;5.37;;;10.10;1.00;;;;;;8217346;28;20188;-68
2022/05/01 22:18:24;;;;;;;8.13;5.10;;;10.00;1.00;;;;;;8211959;28;20193;-68
2022/05/01 22:22:24;;;;;;;7.63;4.80;;;9.80;1.00;;;;;;8220690;28;20199;-68
2022/05/01 22:26:25;;;;;;;7.90;4.47;;;9.60;1.00;;;;;;8237217;28;20255;-68
2022/05/01 22:30:26;;;;;;;7.10;4.73;;;9.40;1.00;;;;;;8239104;28;20208;-71
2022/05/01 22:34:28;;;;;;;6.20;4.13;;;9.20;4.90;;;;;;8219852;28;20184;-68